createdAt,value
2022-11-05T06:34:54.264Z,5.18
2022-11-05T06:37:20.842Z,5.75
2022-11-05T06:39:47.504Z,5.07
2022-11-05T06:42:18.696Z,5.30
2022-11-05T06:44:46.512Z,5.57
2022-11-05T06:47:13.115Z,5.78
2022-11-05T06:49:39.731Z,5.40
2022-11-05T06:52:06.409Z,5.78
2022-11-05T06:56:59.551Z,5.22
2022-11-05T07:01:53.256Z,4.38
2022-11-05T07:04:19.905Z,5.68
2022-11-05T07:09:13.424Z,6.07
2022-11-05T07:11:40.287Z,5.57
2022-11-05T07:14:06.859Z,5.13
2022-11-05T07:19:00.067Z,5.78
2022-11-05T07:21:26.738Z,6.00
2022-11-05T07:26:20.237Z,5.35
2022-11-05T07:28:46.850Z,5.82
2022-11-05T07:33:40.154Z,5.90
2022-11-05T07:38:33.426Z,5.75
2022-11-05T07:41:00.452Z,5.60
2022-11-05T07:43:27.198Z,6.18
2022-11-05T07:45:53.935Z,5.70
2022-11-05T07:48:20.995Z,5.65
2022-11-05T07:50:51.954Z,5.90
2022-11-05T07:53:20.654Z,5.70
2022-11-05T07:55:47.391Z,5.75
2022-11-05T07:58:14.578Z,5.53
2022-11-05T08:00:41.366Z,5.10
2022-11-05T08:03:14.451Z,5.20
2022-11-05T08:05:44.719Z,6.43
2022-11-05T08:08:14.495Z,6.18
2022-11-05T08:10:41.293Z,5.22
2022-11-05T08:13:08.477Z,5.63
2022-11-05T08:15:35.978Z,6.00
2022-11-05T08:18:07.493Z,5.50
2022-11-05T08:20:35.156Z,6.28
2022-11-05T08:23:01.944Z,5.40
2022-11-05T08:25:29.269Z,6.00
2022-11-05T08:28:05.160Z,5.03
2022-11-05T08:30:32.644Z,6.35
2022-11-05T08:33:08.049Z,6.55
2022-11-05T08:35:36.331Z,6.25
2022-11-05T08:38:05.711Z,6.80
2022-11-05T08:40:34.728Z,6.45
2022-11-05T08:43:03.416Z,6.70
2022-11-05T08:45:31.037Z,6.85
2022-11-05T08:48:02.923Z,6.57
2022-11-05T08:50:29.900Z,6.15
2022-11-05T08:52:56.621Z,7.38
2022-11-05T08:55:23.975Z,5.55
2022-11-05T08:58:01.261Z,6.28
2022-11-05T09:00:30.535Z,5.75
2022-11-05T09:03:01.822Z,6.43
2022-11-05T09:05:29.144Z,5.95
2022-11-05T09:08:00.805Z,6.75
2022-11-05T09:10:28.863Z,6.03
2022-11-05T09:12:55.824Z,5.03
2022-11-05T09:15:23.323Z,5.68
2022-11-05T09:17:50.738Z,6.30
2022-11-05T09:20:17.732Z,5.28
2022-11-05T09:22:44.433Z,5.97
2022-11-05T09:25:11.543Z,5.72
2022-11-05T09:27:38.375Z,4.80
2022-11-05T09:30:05.714Z,6.20
2022-11-05T09:32:32.826Z,5.70
2022-11-05T09:35:02.139Z,6.03
2022-11-05T09:37:29.440Z,6.00
2022-11-05T09:39:56.083Z,5.97
2022-11-05T09:42:29.128Z,6.03
2022-11-05T09:45:19.230Z,6.18
2022-11-05T09:47:59.513Z,6.28
2022-11-05T09:50:34.789Z,6.60
2022-11-05T09:53:02.307Z,6.72
2022-11-05T09:55:35.635Z,6.22
2022-11-05T09:58:10.997Z,5.80
2022-11-05T10:00:37.866Z,6.35
2022-11-05T10:03:08.018Z,5.80
2022-11-05T10:05:37.329Z,6.00
2022-11-05T10:08:17.192Z,4.78
2022-11-05T10:11:09.482Z,4.90
2022-11-05T10:13:56.330Z,5.90
2022-11-05T10:16:31.021Z,5.82
2022-11-05T10:19:06.497Z,5.63
2022-11-05T10:22:04.121Z,5.10
2022-11-05T10:24:21.281Z,5.78
2022-11-05T10:26:51.294Z,4.75
2022-11-05T10:29:30.280Z,5.72
2022-11-05T10:31:58.800Z,5.10
2022-11-05T10:34:33.505Z,5.88
2022-11-05T10:37:00.885Z,4.40
2022-11-05T10:39:28.887Z,4.20
2022-11-05T10:42:14.103Z,4.53
2022-11-05T10:44:48.601Z,4.28
2022-11-05T10:47:52.656Z,4.00
2022-11-05T10:50:27.807Z,3.20
2022-11-05T10:53:27.128Z,3.58
2022-11-05T10:55:58.718Z,2.20
2022-11-05T10:58:31.777Z,1.90
2022-11-05T11:01:04.148Z,2.13
2022-11-05T11:03:33.949Z,2.08
2022-11-05T11:06:22.034Z,2.47
2022-11-05T11:08:50.212Z,2.30
2022-11-05T11:11:46.128Z,2.03
2022-11-05T11:14:12.683Z,2.22
2022-11-05T11:16:47.917Z,1.90
2022-11-05T11:19:36.454Z,2.00
2022-11-05T11:22:03.232Z,2.40
2022-11-05T11:24:33.536Z,4.13
2022-11-05T11:27:08.722Z,3.60
2022-11-05T11:29:40.509Z,2.10
2022-11-05T11:32:15.074Z,3.88
2022-11-05T11:34:44.603Z,3.20
2022-11-05T11:37:21.727Z,3.90
2022-11-05T11:39:53.756Z,3.10
2022-11-05T11:42:38.709Z,4.18
2022-11-05T11:45:25.635Z,5.43
2022-11-05T11:47:52.450Z,4.70
2022-11-05T11:50:32.843Z,4.30
2022-11-05T11:53:25.367Z,4.70
2022-11-05T11:55:55.113Z,4.18
2022-11-05T11:58:23.500Z,2.60
2022-11-05T12:01:00.719Z,3.08
2022-11-05T12:03:48.132Z,2.28
2022-11-05T12:06:27.398Z,2.30
2022-11-05T12:09:16.766Z,1.90
2022-11-05T12:11:53.203Z,2.63
2022-11-05T12:14:28.446Z,2.45
2022-11-05T12:17:13.411Z,2.85
2022-11-05T12:20:01.733Z,2.70
2022-11-05T12:22:46.970Z,3.53
2022-11-05T12:25:22.783Z,3.03
2022-11-05T12:28:01.627Z,3.50
2022-11-05T12:30:37.215Z,3.33
2022-11-05T12:33:19.184Z,4.00
2022-11-05T12:35:48.879Z,2.70
2022-11-05T12:38:56.329Z,2.47
2022-11-05T12:41:41.846Z,2.83
2022-11-05T12:44:33.834Z,3.83
2022-11-05T12:47:15.459Z,3.05
2022-11-05T12:49:48.328Z,3.33
2022-11-05T12:52:33.524Z,2.67
2022-11-05T12:55:13.663Z,3.40
2022-11-05T12:57:43.243Z,2.15
2022-11-05T13:00:25.000Z,1.73
2022-11-05T13:03:13.356Z,2.13
2022-11-05T13:05:46.369Z,2.58
2022-11-05T13:08:18.928Z,2.05
2022-11-05T13:10:58.233Z,2.35
2022-11-05T13:13:28.506Z,2.60
2022-11-05T13:15:59.255Z,2.60
2022-11-05T13:18:50.126Z,2.90
2022-11-05T13:21:21.570Z,2.72
2022-11-05T13:23:54.784Z,2.63
2022-11-05T13:26:29.509Z,2.35
2022-11-05T13:29:03.807Z,2.60
2022-11-05T13:31:37.300Z,2.40
2022-11-05T13:34:10.833Z,2.55
2022-11-05T13:37:06.448Z,2.40
2022-11-05T13:39:41.306Z,3.40
2022-11-05T13:42:20.180Z,2.83
2022-11-05T13:45:14.670Z,5.53
2022-11-05T13:48:02.666Z,3.50
2022-11-05T13:51:07.436Z,3.58
2022-11-05T13:53:55.800Z,3.67
2022-11-05T13:56:34.458Z,4.07
2022-11-05T13:59:20.019Z,7.78
2022-11-05T14:01:58.742Z,7.65
2022-11-05T14:04:35.473Z,5.75
2022-11-05T14:07:23.949Z,8.60
2022-11-05T14:09:58.519Z,7.47
2022-11-05T14:12:38.064Z,4.93
2022-11-05T14:15:19.791Z,4.57
2022-11-05T14:18:18.427Z,3.72
2022-11-05T14:20:58.433Z,2.97
2022-11-05T14:23:27.696Z,3.20
2022-11-05T14:25:54.469Z,3.85
2022-11-05T14:28:36.517Z,3.10
2022-11-05T14:31:13.141Z,3.30
2022-11-05T14:33:40.009Z,4.40
2022-11-05T14:36:21.939Z,9.02
2022-11-05T14:38:51.669Z,10.88
2022-11-05T14:41:19.989Z,7.75
2022-11-05T14:43:59.331Z,5.32
2022-11-05T14:46:43.201Z,4.82
2022-11-05T14:49:38.518Z,4.88
2022-11-05T14:52:11.206Z,3.58
2022-11-05T14:54:50.802Z,4.05
2022-11-05T14:57:53.203Z,3.85
2022-11-05T15:00:29.085Z,4.70
2022-11-05T15:03:04.239Z,4.97
2022-11-05T15:05:51.830Z,5.25
2022-11-05T15:08:54.948Z,4.70
2022-11-05T15:11:29.191Z,4.68
2022-11-05T15:13:55.764Z,4.55
2022-11-05T15:19:19.771Z,5.72
2022-11-05T15:21:46.756Z,5.20
2022-11-05T15:24:19.417Z,5.30
2022-11-05T15:27:02.241Z,5.38
2022-11-05T15:29:30.522Z,5.60
2022-11-05T15:31:58.543Z,4.63
2022-11-05T15:34:28.881Z,5.60
2022-11-05T15:37:00.004Z,5.90
2022-11-05T15:39:42.594Z,7.55
2022-11-05T15:42:16.241Z,7.30
2022-11-05T15:44:48.089Z,7.65
2022-11-05T15:47:14.684Z,7.60
2022-11-05T15:52:14.469Z,7.50
2022-11-05T15:54:41.965Z,6.53
2022-11-05T15:57:21.230Z,7.43
2022-11-05T15:59:48.557Z,8.27
2022-11-05T16:02:32.459Z,9.20
2022-11-05T16:05:02.572Z,8.32
2022-11-05T16:07:30.295Z,8.63
2022-11-05T16:09:59.921Z,8.32
2022-11-05T16:12:36.832Z,8.57
2022-11-05T16:15:09.477Z,8.32
2022-11-05T16:17:49.264Z,9.32
2022-11-05T16:20:36.053Z,8.05
2022-11-05T16:23:07.427Z,9.20
2022-11-05T16:25:45.582Z,10.40
2022-11-05T16:28:30.157Z,8.85
2022-11-05T16:30:59.561Z,9.55
2022-11-05T16:33:31.669Z,8.18
2022-11-05T16:35:58.489Z,8.48
2022-11-05T16:38:25.316Z,9.43
2022-11-05T16:40:53.109Z,9.77
2022-11-05T16:45:53.689Z,11.20
2022-11-05T16:48:20.939Z,11.25
2022-11-05T16:50:47.691Z,11.88
2022-11-05T16:53:14.391Z,13.23
2022-11-05T16:58:24.016Z,12.48
2022-11-05T17:00:52.772Z,13.07
2022-11-05T17:03:19.404Z,13.55
2022-11-05T17:08:12.809Z,12.43
2022-11-05T17:10:39.659Z,12.15
2022-11-05T17:15:37.067Z,11.73
2022-11-05T17:18:06.205Z,11.57
2022-11-05T17:20:39.399Z,12.30
2022-11-05T17:23:09.509Z,11.15
2022-11-05T17:25:36.575Z,9.85
2022-11-05T17:30:30.285Z,7.50
2022-11-05T17:32:57.075Z,7.78
2022-11-05T17:35:23.726Z,6.40
2022-11-05T17:40:20.066Z,4.93
2022-11-05T17:42:46.783Z,5.18
2022-11-05T17:47:41.855Z,4.95
2022-11-05T17:50:11.375Z,6.53
2022-11-05T17:52:38.124Z,9.15
2022-11-05T17:57:32.363Z,10.82
2022-11-05T17:59:58.970Z,10.70
2022-11-05T18:02:27.755Z,11.15
2022-11-05T18:04:54.546Z,13.95
2022-11-05T18:09:48.021Z,12.15
2022-11-05T18:14:41.175Z,13.43
2022-11-05T18:17:09.507Z,14.05
2022-11-05T18:19:38.283Z,14.75
2022-11-05T18:22:04.991Z,15.75
2022-11-05T18:24:32.240Z,14.93
2022-11-05T18:26:59.109Z,16.50
2022-11-05T18:29:25.821Z,15.57
2022-11-05T18:34:18.964Z,15.95
2022-11-05T18:36:45.759Z,16.35
2022-11-05T18:41:39.272Z,14.02
2022-11-05T18:46:57.193Z,12.27
2022-11-05T18:49:20.506Z,12.80
2022-11-05T18:54:14.408Z,10.98
2022-11-05T18:56:45.404Z,11.23
2022-11-05T19:02:06.022Z,11.10
2022-11-05T19:04:34.624Z,12.48
2022-11-05T19:07:04.783Z,11.77
2022-11-05T19:09:31.846Z,11.25
2022-11-05T19:11:58.422Z,11.07
2022-11-05T19:14:25.153Z,9.80
2022-11-05T19:19:18.374Z,8.98
2022-11-05T19:24:16.731Z,9.07
2022-11-05T19:26:44.191Z,10.18
2022-11-05T19:29:10.764Z,9.68
2022-11-05T19:34:05.392Z,9.13
2022-11-05T19:36:33.345Z,10.68
2022-11-05T19:39:03.946Z,11.55
2022-11-05T19:41:31.019Z,14.10
2022-11-05T19:44:01.883Z,15.27
2022-11-05T19:46:29.788Z,12.98
2022-11-05T19:48:57.107Z,11.95
2022-11-05T19:51:27.035Z,12.88
2022-11-05T19:53:55.269Z,13.23
2022-11-05T19:56:24.709Z,12.20
2022-11-05T19:58:53.218Z,12.77
2022-11-05T20:01:22.355Z,13.18
2022-11-05T20:03:49.627Z,12.75
2022-11-05T20:06:19.794Z,12.77
2022-11-05T20:09:15.167Z,11.82
2022-11-05T20:11:37.403Z,11.20
2022-11-05T20:14:05.511Z,11.77
2022-11-05T20:16:40.427Z,10.88
2022-11-05T20:19:10.181Z,10.43
2022-11-05T20:21:37.553Z,10.95
2022-11-05T20:24:04.917Z,10.07
2022-11-05T20:26:31.781Z,10.07
2022-11-05T20:28:58.838Z,11.30
2022-11-05T20:31:25.561Z,10.23
2022-11-05T20:36:22.240Z,9.18
2022-11-05T20:38:50.947Z,9.77
2022-11-05T20:41:18.417Z,9.75
2022-11-05T20:43:46.855Z,9.50
2022-11-05T20:46:16.363Z,10.95
2022-11-05T20:48:44.014Z,10.57
2022-11-05T20:51:17.712Z,10.55
2022-11-05T20:53:46.208Z,10.18
2022-11-05T20:56:21.065Z,11.38
2022-11-05T20:58:47.673Z,10.52
2022-11-05T21:01:16.514Z,10.60
2022-11-05T21:03:44.592Z,10.55
2022-11-05T21:06:11.749Z,10.60
2022-11-05T21:08:39.066Z,10.65
2022-11-05T21:11:07.099Z,9.70
2022-11-05T21:13:34.087Z,9.98
2022-11-05T21:16:01.507Z,10.15
2022-11-05T21:18:31.056Z,10.63
2022-11-05T21:20:59.839Z,10.82
2022-11-05T21:23:29.722Z,9.23
2022-11-05T21:25:56.320Z,10.68
2022-11-05T21:30:49.937Z,8.38
2022-11-05T21:33:18.046Z,9.45
2022-11-05T21:35:47.256Z,9.63
2022-11-05T21:38:16.637Z,9.75
2022-11-05T21:40:44.495Z,8.77
2022-11-05T21:43:12.131Z,9.68
2022-11-05T21:45:40.451Z,10.75
2022-11-05T21:48:07.928Z,11.63
2022-11-05T21:50:53.912Z,10.77
2022-11-05T21:53:38.851Z,11.00
2022-11-05T21:56:33.065Z,10.05
2022-11-05T21:59:18.032Z,9.73
2022-11-05T22:04:11.526Z,9.18
2022-11-05T22:06:38.100Z,9.82
2022-11-05T22:09:04.717Z,7.80
2022-11-05T22:11:36.065Z,8.40
2022-11-05T22:14:02.860Z,8.25
2022-11-05T22:18:59.840Z,8.40
2022-11-05T22:21:26.497Z,8.63
2022-11-05T22:23:53.659Z,8.50
2022-11-05T22:26:20.625Z,8.63
2022-11-05T22:28:47.450Z,8.95
2022-11-05T22:33:42.090Z,7.85
2022-11-05T22:36:09.659Z,10.45
2022-11-05T22:38:36.659Z,8.13
2022-11-05T22:41:12.279Z,9.38
2022-11-05T22:43:39.478Z,8.95
2022-11-05T22:46:08.593Z,9.45
2022-11-05T22:48:38.110Z,9.20
2022-11-05T22:51:11.132Z,8.95
2022-11-05T22:53:38.866Z,9.70
2022-11-05T22:56:08.053Z,10.55
2022-11-05T22:58:34.775Z,10.20
2022-11-05T23:03:29.847Z,9.70
2022-11-05T23:06:27.606Z,10.27
2022-11-05T23:09:12.675Z,9.90
2022-11-05T23:11:41.055Z,9.30
2022-11-05T23:14:10.215Z,10.07
2022-11-05T23:16:55.814Z,9.57
2022-11-05T23:19:41.592Z,8.80
2022-11-05T23:22:39.521Z,9.45
2022-11-05T23:25:09.262Z,7.05
2022-11-05T23:27:38.156Z,7.85
2022-11-05T23:30:09.501Z,7.70
2022-11-05T23:32:36.558Z,8.38
2022-11-05T23:35:03.785Z,8.15
2022-11-05T23:37:50.137Z,7.47
2022-11-05T23:40:20.244Z,7.15
2022-11-05T23:43:05.926Z,7.75
2022-11-05T23:45:47.989Z,7.38
2022-11-05T23:48:36.267Z,7.95
2022-11-05T23:51:04.445Z,8.80
2022-11-05T23:53:33.235Z,8.60
2022-11-05T23:56:07.200Z,10.07
2022-11-05T23:58:34.199Z,9.70
